Airfield :
LOGIN :

Register | Disclaimer

   EN    FR    IT 

 










Legend :    VFR   Marginal VFR   IFR   Intensive IFR   Very Intensive IFR
Visi :
Ceiling :
>= 8 km
>= 3000ft
5 to 8 km
1000 to 3000 ft
1500m to 5 km
500 to 1000 ft
800 to 1500m
200 to 500 ft
< 800m
< 200 ft
Symbols :   Thunderstorms  Fog  Heavy snow  Heavy precipitations  Wind > 20 kt
SIGMETs :     Misc.  Thunderstorms  Icing  Turbulence  Mountain Waves  Volcanic Ashes






- Airport Elevation : 124 ft
- IATA code : RNS


LFRN - Rennes

CURRENT METAR :
  • 231900Z AUTO 31004KT 5000 BR SCT017 SCT094 13/12 Q1006 TEMPO 1500 BR BKN002

EXPIRED METARs :
  • 231830Z AUTO VRB03KT 5000 BR OVC017 13/12 Q1007 TEMPO 1500 BR BKN002
  • 231800Z AUTO VRB03KT 4700 BR SCT017 13/12 Q1006 BECMG 9999 NSW
  • 231730Z AUTO 02002KT 7000 FEW017 14/12 Q1006 NOSIG
  • 231700Z AUTO 12003KT 070V140 9000 BKN018 15/12 Q1006 TEMPO 4000 RADZ BKN005
  • 231630Z AUTO 12005KT 9999 OVC017 15/13 Q1006 TEMPO 4000 RADZ BKN005

TAF AMD TAF LFRN
Valid from the 23 at 18:00 until the 24 at 18:00 UTC


231805Z 2318/2418 VRB05KT 9999 BKN015 BKN040
BECMG 2318/2320 4000 BR
TEMPO 2320/2404 1500 BR BKN002
BECMG 2402/2405 5000 RA
TEMPO 2405/2409 3000 RA BKN004 SCT015CB
TEMPO 2409/2412 BKN012
BECMG 2410/2413 9999 NSW SCT015
PROB30
TEMPO 2413/2416 5000 SHRA BKN015
ATIS : +33 2 99 67 72 50



MET'MAP, your aeronautical weather chart ! - Copyright ORBIFLY December 2007 - Disclaimer

ORBIFLY MET'MAP TEAM :

Programming & Development : Alexandra Zaïnal
Concept & Development : Baudouin d'Aumeries
Co-Development & Prog : Marc-Olivier Méhu
Technical & hardware support : Manuel Goepfert

Contact : metmap@orbifly.com




SOURCES & CREDITS :

   NOAA